Time;durP1;ratioP1;P1;durP2;ratioP2;P2;SDS_P1;SDS_P2;PMS_P1;PMS_P2;Temp;Humidity;BMP_temperature;BMP_pressure;BME280_temperature;BME280_humidity;BME280_pressure;Samples;Min_cycle;Max_cycle;Signal;HPM_P1;HPM_P2
2023/04/05 00:00:42;;;;;;;16.83;10.97;;;1.70;99.90;;;;;;5099797;28;20224;-66
2023/04/05 00:03:08;;;;;;;11.37;10.03;;;1.70;99.90;;;;;;5099827;28;20177;-66
2023/04/05 00:05:35;;;;;;;15.90;10.53;;;1.70;99.90;;;;;;5100411;28;20177;-66
2023/04/05 00:08:12;;;;;;;12.23;10.07;;;1.60;99.90;;;;;;5098607;28;20702;-66
2023/04/05 00:10:38;;;;;;;13.40;10.63;;;1.50;99.90;;;;;;5098395;28;20209;-66
2023/04/05 00:13:04;;;;;;;16.63;11.27;;;1.40;99.90;;;;;;5099845;28;20538;-66
2023/04/05 00:15:30;;;;;;;11.87;9.80;;;1.30;99.90;;;;;;5098458;28;20179;-66
2023/04/05 00:17:57;;;;;;;11.37;10.00;;;1.20;99.90;;;;;;5098286;28;20169;-66
2023/04/05 00:20:22;;;;;;;14.07;10.83;;;1.20;99.90;;;;;;5099962;28;20220;-66
2023/04/05 00:22:49;;;;;;;15.70;10.80;;;1.10;99.90;;;;;;5098245;28;20208;-66
2023/04/05 00:25:15;;;;;;;12.63;10.30;;;1.10;99.90;;;;;;5096031;28;20181;-66
2023/04/05 00:27:44;;;;;;;11.93;10.63;;;1.10;99.90;;;;;;5096896;28;20170;-66
2023/04/05 00:30:10;;;;;;;12.33;10.47;;;1.00;99.90;;;;;;5096458;28;20200;-66
2023/04/05 00:32:36;;;;;;;13.83;10.40;;;1.10;99.90;;;;;;5095041;28;20165;-66
2023/04/05 00:35:02;;;;;;;11.67;10.10;;;1.20;99.90;;;;;;5096454;28;20567;-66
2023/04/05 00:37:28;;;;;;;13.33;10.00;;;1.20;99.90;;;;;;5096586;28;20633;-66
2023/04/05 00:39:56;;;;;;;12.67;11.27;;;1.20;99.90;;;;;;5096364;28;20173;-67
2023/04/05 00:42:22;;;;;;;15.33;10.90;;;1.10;99.90;;;;;;5094977;28;20547;-66
2023/04/05 00:44:48;;;;;;;14.27;11.17;;;1.00;99.90;;;;;;5094950;28;20177;-66
2023/04/05 00:47:13;;;;;;;12.40;10.47;;;0.90;99.90;;;;;;5096139;28;20169;-67
2023/04/05 00:49:40;;;;;;;12.03;10.77;;;0.90;99.90;;;;;;5096364;28;20201;-66
2023/04/05 00:52:07;;;;;;;13.50;11.60;;;0.90;99.90;;;;;;5096182;28;20166;-67
2023/04/05 00:54:33;;;;;;;17.50;11.80;;;0.90;99.90;;;;;;5096165;28;20173;-66
2023/04/05 00:56:59;;;;;;;19.27;12.40;;;0.90;99.90;;;;;;5096242;28;20252;-67
2023/04/05 00:59:26;;;;;;;13.00;11.53;;;0.70;99.90;;;;;;5096162;28;20728;-66
2023/04/05 01:02:06;;;;;;;17.00;12.33;;;0.70;99.90;;;;;;5095646;28;20189;-66
2023/04/05 01:04:35;;;;;;;14.87;11.90;;;0.70;99.90;;;;;;5096343;28;20162;-66
2023/04/05 01:07:08;;;;;;;13.97;11.10;;;0.70;99.90;;;;;;5095781;28;20584;-66
2023/04/05 01:10:08;;;;;;;15.03;12.03;;;0.80;99.90;;;;;;5094282;28;20273;-66
2023/04/05 01:12:36;;;;;;;13.23;11.73;;;0.80;99.90;;;;;;5084364;28;20196;-69
2023/04/05 01:15:01;;;;;;;15.20;11.87;;;0.80;99.90;;;;;;5094564;28;20519;-70
2023/04/05 01:17:35;;;;;;;13.90;11.83;;;0.80;99.90;;;;;;5095361;28;20168;-69
2023/04/05 01:20:10;;;;;;;16.17;12.43;;;0.80;99.90;;;;;;5095711;28;20185;-69
2023/04/05 01:23:03;;;;;;;12.63;11.33;;;0.90;99.90;;;;;;5094742;28;20184;-69
2023/04/05 01:25:47;;;;;;;15.37;11.80;;;0.90;99.90;;;;;;5094448;28;20165;-67
2023/04/05 01:28:25;;;;;;;16.73;11.70;;;0.70;99.90;;;;;;5095331;28;20173;-67
2023/04/05 01:31:21;;;;;;;12.60;11.10;;;0.70;99.90;;;;;;5093824;28;20265;-67
2023/04/05 01:33:55;;;;;;;14.53;11.23;;;0.60;99.90;;;;;;5088110;28;20319;-68
2023/04/05 01:36:31;;;;;;;13.97;11.70;;;0.50;99.90;;;;;;5094215;28;20252;-68
2023/04/05 01:39:01;;;;;;;19.17;12.43;;;0.40;99.90;;;;;;5094963;28;20702;-67
2023/04/05 01:41:26;;;;;;;14.53;12.40;;;0.40;99.90;;;;;;5095306;28;20280;-67
2023/04/05 01:43:52;;;;;;;16.07;12.03;;;0.40;99.90;;;;;;5094987;28;20248;-67
2023/04/05 01:46:18;;;;;;;18.37;11.93;;;0.40;99.90;;;;;;5095633;28;20173;-67
2023/04/05 01:48:44;;;;;;;14.60;12.37;;;0.50;99.90;;;;;;5093581;28;20177;-68
2023/04/05 01:51:10;;;;;;;17.03;12.40;;;0.50;99.90;;;;;;5094137;28;20201;-67
2023/04/05 01:53:35;;;;;;;16.60;13.47;;;0.40;99.90;;;;;;5094909;28;20173;-67
2023/04/05 01:56:01;;;;;;;18.87;13.43;;;0.30;99.90;;;;;;5094949;28;20174;-67
2023/04/05 01:58:27;;;;;;;18.60;12.97;;;0.20;99.90;;;;;;5094623;28;20196;-68
2023/04/05 02:00:57;;;;;;;17.60;12.60;;;0.10;99.90;;;;;;5094911;28;20246;-67
2023/04/05 02:03:23;;;;;;;17.87;12.13;;;0.00;99.90;;;;;;5094824;28;20171;-67
2023/04/05 02:05:50;;;;;;;13.70;11.73;;;0.00;99.90;;;;;;5094814;28;20540;-67
2023/04/05 02:08:16;;;;;;;15.20;12.10;;;0.00;99.90;;;;;;5094664;28;20223;-68
2023/04/05 02:10:42;;;;;;;23.43;13.13;;;0.10;99.90;;;;;;5094492;28;20266;-67
2023/04/05 02:13:08;;;;;;;18.40;12.23;;;0.10;99.90;;;;;;5094832;28;20177;-67
2023/04/05 02:15:33;;;;;;;16.20;13.13;;;0.20;99.90;;;;;;5093417;28;20177;-68
2023/04/05 02:18:02;;;;;;;19.60;14.03;;;0.10;99.90;;;;;;5094703;28;20169;-67
2023/04/05 02:20:28;;;;;;;21.23;13.40;;;0.10;99.90;;;;;;5094408;28;20219;-67
2023/04/05 02:22:55;;;;;;;14.23;12.73;;;0.10;99.90;;;;;;5094462;28;20197;-67
2023/04/05 02:25:21;;;;;;;18.10;13.57;;;0.10;99.90;;;;;;5094654;28;20177;-67
2023/04/05 02:27:47;;;;;;;18.80;12.60;;;0.00;99.90;;;;;;5094569;28;20184;-67
2023/04/05 02:30:14;;;;;;;16.73;12.60;;;0.00;99.90;;;;;;5092761;28;20270;-67
2023/04/05 02:32:44;;;;;;;19.33;13.87;;;0.10;99.90;;;;;;5092824;28;20177;-67
2023/04/05 02:35:10;;;;;;;16.97;12.87;;;0.10;99.90;;;;;;5094641;28;20286;-67
2023/04/05 02:37:37;;;;;;;17.57;12.90;;;0.20;99.90;;;;;;5094272;28;20173;-67
2023/04/05 02:40:08;;;;;;;16.03;12.37;;;0.20;99.90;;;;;;5094337;28;20245;-67
2023/04/05 02:42:34;;;;;;;17.27;12.97;;;0.20;99.90;;;;;;5094351;28;20165;-67
2023/04/05 02:45:00;;;;;;;18.93;13.20;;;0.10;99.90;;;;;;5094022;28;20169;-67
2023/04/05 02:47:25;;;;;;;18.73;13.63;;;-0.10;99.90;;;;;;5092521;28;20660;-69
2023/04/05 02:49:51;;;;;;;20.87;13.93;;;-0.10;99.90;;;;;;5093809;28;20684;-69
2023/04/05 02:52:17;;;;;;;17.90;13.40;;;0.00;99.90;;;;;;5096582;28;20252;-69
2023/04/05 02:54:43;;;;;;;17.67;13.27;;;0.00;99.90;;;;;;5098361;28;20514;-69
2023/04/05 02:57:10;;;;;;;20.93;14.10;;;0.00;99.90;;;;;;5095191;28;20177;-69
2023/04/05 02:59:39;;;;;;;20.30;13.07;;;-0.10;99.90;;;;;;5093950;28;20181;-69
2023/04/05 03:02:05;;;;;;;17.47;13.53;;;0.00;99.90;;;;;;5092699;28;20185;-69
2023/04/05 03:04:33;;;;;;;17.27;12.00;;;0.00;99.90;;;;;;5092276;28;20732;-69
2023/04/05 03:07:01;;;;;;;19.40;12.77;;;-0.10;99.90;;;;;;5092376;28;20188;-69
2023/04/05 03:09:32;;;;;;;19.73;13.87;;;0.00;99.90;;;;;;5094040;28;20200;-69
2023/04/05 03:12:00;;;;;;;24.90;13.70;;;0.00;99.90;;;;;;5093773;28;20189;-69
2023/04/05 03:14:26;;;;;;;19.70;13.77;;;-0.10;99.90;;;;;;5094049;28;20191;-69
2023/04/05 03:16:52;;;;;;;20.20;14.63;;;-0.10;99.90;;;;;;5093772;28;20169;-69
2023/04/05 03:19:21;;;;;;;19.93;13.30;;;-0.10;99.90;;;;;;5093483;28;20208;-69
2023/04/05 03:21:47;;;;;;;22.63;14.30;;;-0.20;99.90;;;;;;5092623;28;20218;-69
2023/04/05 03:24:13;;;;;;;18.47;12.93;;;-0.20;99.90;;;;;;5094005;28;20181;-69
2023/04/05 03:26:39;;;;;;;20.83;14.13;;;-0.20;99.90;;;;;;5096245;28;20247;-69
2023/04/05 03:29:05;;;;;;;18.23;14.57;;;-0.20;99.90;;;;;;5096202;28;20220;-69
2023/04/05 03:31:31;;;;;;;16.90;13.60;;;-0.10;99.90;;;;;;5095519;28;20201;-68
2023/04/05 03:33:57;;;;;;;23.27;13.73;;;-0.30;99.90;;;;;;5096400;28;20252;-68
2023/04/05 03:36:23;;;;;;;24.27;13.67;;;-0.30;99.90;;;;;;5094641;28;20174;-69
2023/04/05 03:38:50;;;;;;;16.90;13.70;;;-0.30;99.90;;;;;;5093993;28;20178;-69
2023/04/05 03:41:16;;;;;;;21.17;14.13;;;-0.30;99.90;;;;;;5093670;28;20254;-69
2023/04/05 03:43:42;;;;;;;16.27;12.87;;;-0.40;99.90;;;;;;5092603;28;20205;-69
2023/04/05 03:46:07;;;;;;;16.17;13.17;;;-0.50;99.90;;;;;;5092239;28;20629;-69
2023/04/05 03:48:33;;;;;;;18.33;13.03;;;-0.60;99.90;;;;;;5093382;28;20173;-69
2023/04/05 03:50:59;;;;;;;18.17;14.00;;;-0.60;99.90;;;;;;5093509;28;20212;-69
2023/04/05 03:53:25;;;;;;;16.57;12.97;;;-0.50;99.90;;;;;;5092467;28;20229;-69
2023/04/05 03:55:53;;;;;;;21.23;13.93;;;-0.50;99.90;;;;;;5092319;28;20195;-69
2023/04/05 03:58:18;;;;;;;17.40;13.43;;;-0.40;99.90;;;;;;5093186;28;20228;-68
2023/04/05 04:00:44;;;;;;;15.53;13.37;;;-0.40;99.90;;;;;;5094786;28;20240;-69
2023/04/05 04:03:10;;;;;;;18.67;13.63;;;-0.40;99.90;;;;;;5097093;28;20226;-69
2023/04/05 04:05:37;;;;;;;18.40;13.63;;;-0.40;99.90;;;;;;5095833;28;20181;-69
2023/04/05 04:08:06;;;;;;;23.27;15.43;;;-0.40;99.90;;;;;;5097353;28;20173;-69
2023/04/05 04:10:33;;;;;;;26.33;16.50;;;-0.40;99.90;;;;;;5095545;28;20677;-69
2023/04/05 04:12:59;;;;;;;21.30;15.93;;;-0.30;99.90;;;;;;5097218;28;20184;-69
2023/04/05 04:15:25;;;;;;;21.47;15.03;;;-0.40;99.90;;;;;;5097103;28;20180;-69
2023/04/05 04:17:51;;;;;;;22.30;14.77;;;-0.60;99.90;;;;;;5096852;28;20177;-68
2023/04/05 04:20:16;;;;;;;19.67;14.40;;;-0.60;99.90;;;;;;5097800;28;20197;-66
2023/04/05 04:22:42;;;;;;;20.67;14.00;;;-0.60;99.90;;;;;;5096656;28;20193;-66
2023/04/05 04:25:09;;;;;;;19.53;15.33;;;-0.60;99.90;;;;;;5095229;28;20192;-66
2023/04/05 04:27:40;;;;;;;21.70;15.30;;;-0.60;99.90;;;;;;5096395;28;20181;-66
2023/04/05 04:30:11;;;;;;;16.00;13.97;;;-0.70;99.90;;;;;;5094910;28;20215;-66
2023/04/05 04:32:51;;;;;;;15.23;13.63;;;-0.80;99.90;;;;;;5096412;28;20685;-66
2023/04/05 04:35:26;;;;;;;20.27;12.93;;;-0.80;99.90;;;;;;5097054;28;20183;-67
2023/04/05 04:38:06;;;;;;;17.87;13.37;;;-0.80;99.90;;;;;;5096710;28;20157;-66
2023/04/05 04:40:38;;;;;;;17.97;13.40;;;-0.80;99.90;;;;;;5095148;28;20200;-66
2023/04/05 04:43:17;;;;;;;17.13;13.97;;;-0.80;99.90;;;;;;5096663;28;20169;-66
2023/04/05 04:45:46;;;;;;;16.00;12.97;;;-0.80;99.90;;;;;;5096490;28;20162;-67
2023/04/05 04:48:15;;;;;;;14.27;12.77;;;-0.80;99.90;;;;;;5095973;28;20604;-66
2023/04/05 04:50:45;;;;;;;15.63;12.20;;;-0.80;99.90;;;;;;5094576;28;20220;-66
2023/04/05 04:53:12;;;;;;;15.67;13.03;;;-1.00;99.90;;;;;;5096147;28;20238;-66
2023/04/05 04:55:41;;;;;;;17.20;12.23;;;-1.00;99.90;;;;;;5095943;28;20195;-66
2023/04/05 04:58:11;;;;;;;16.23;12.70;;;-1.10;99.90;;;;;;5095813;28;20181;-66
2023/04/05 05:00:40;;;;;;;17.30;14.10;;;-1.10;99.90;;;;;;5095732;28;20225;-66
2023/04/05 05:03:07;;;;;;;17.00;12.50;;;-1.20;99.90;;;;;;5095952;28;20207;-66
2023/04/05 05:05:33;;;;;;;16.03;12.50;;;-1.10;99.90;;;;;;5094621;28;20197;-66
2023/04/05 05:07:59;;;;;;;21.93;13.37;;;-1.20;99.90;;;;;;5094430;28;20199;-66
2023/04/05 05:10:25;;;;;;;18.30;13.20;;;-1.30;99.90;;;;;;5096049;28;20219;-66
2023/04/05 05:12:51;;;;;;;16.40;13.47;;;-1.30;99.90;;;;;;5095424;28;20177;-66
2023/04/05 05:15:18;;;;;;;23.03;14.00;;;-1.40;99.90;;;;;;5095708;28;20260;-66
2023/04/05 05:17:44;;;;;;;19.27;14.07;;;-1.40;99.90;;;;;;5095540;28;20169;-66
2023/04/05 05:20:10;;;;;;;15.33;13.47;;;-1.50;99.90;;;;;;5094000;28;20200;-66
2023/04/05 05:22:37;;;;;;;17.40;13.87;;;-1.40;99.90;;;;;;5095139;28;20189;-66
2023/04/05 05:25:04;;;;;;;16.90;14.20;;;-1.30;99.90;;;;;;5095407;28;20272;-66
2023/04/05 05:27:30;;;;;;;18.37;14.23;;;-1.40;99.90;;;;;;5095258;28;20234;-66
2023/04/05 05:29:56;;;;;;;18.40;13.60;;;-1.30;99.90;;;;;;5095042;28;20260;-66
2023/04/05 05:32:22;;;;;;;23.63;14.67;;;-1.20;99.90;;;;;;5095290;28;20185;-67
2023/04/05 05:34:48;;;;;;;17.13;13.87;;;-1.10;99.90;;;;;;5095029;28;20252;-66
2023/04/05 05:37:15;;;;;;;17.43;14.10;;;-1.00;99.90;;;;;;5095139;28;20606;-66
2023/04/05 05:39:41;;;;;;;17.87;13.93;;;-0.90;99.90;;;;;;5095033;28;20570;-69
2023/04/05 05:42:06;;;;;;;20.80;14.07;;;-0.90;99.90;;;;;;5094533;28;20238;-67
2023/04/05 05:44:32;;;;;;;19.73;14.20;;;-0.90;99.90;;;;;;5094297;28;20181;-67
2023/04/05 05:46:58;;;;;;;20.53;14.37;;;-0.90;99.90;;;;;;5094435;28;20187;-67
2023/04/05 05:49:24;;;;;;;23.50;14.40;;;-0.80;99.90;;;;;;5095039;28;20228;-67
2023/04/05 05:51:51;;;;;;;21.07;14.97;;;-0.80;99.90;;;;;;5094829;28;20725;-67
2023/04/05 05:54:17;;;;;;;27.30;15.03;;;-0.80;99.90;;;;;;5094801;28;20208;-67
2023/04/05 05:56:43;;;;;;;20.30;15.37;;;-0.70;99.90;;;;;;5094813;28;20180;-67
2023/04/05 05:59:10;;;;;;;20.07;14.97;;;-0.60;99.90;;;;;;5094634;28;20284;-67
2023/04/05 06:01:37;;;;;;;20.30;15.33;;;-0.60;99.90;;;;;;5094706;28;20188;-67
2023/04/05 06:04:05;;;;;;;16.23;14.37;;;-0.50;99.90;;;;;;5093311;28;20188;-67
2023/04/05 06:06:32;;;;;;;18.57;13.80;;;-0.40;99.90;;;;;;5095169;28;20173;-67
2023/04/05 06:08:58;;;;;;;21.00;13.53;;;-0.30;99.90;;;;;;5095069;28;20179;-67
2023/04/05 06:11:25;;;;;;;18.03;14.10;;;-0.30;99.90;;;;;;5094864;28;20391;-68
2023/04/05 06:13:53;;;;;;;17.17;13.97;;;-0.20;99.90;;;;;;5094918;28;20230;-67
2023/04/05 06:16:23;;;;;;;15.90;14.20;;;-0.10;99.90;;;;;;5093224;28;20668;-67
2023/04/05 06:18:48;;;;;;;17.27;13.57;;;0.00;99.90;;;;;;5094373;28;20549;-67
2023/04/05 06:21:15;;;;;;;18.60;14.30;;;0.10;99.90;;;;;;5094226;28;20212;-67
2023/04/05 06:23:41;;;;;;;20.20;13.73;;;0.10;99.90;;;;;;5092155;28;20193;-68
2023/04/05 06:26:07;;;;;;;18.50;13.77;;;0.10;99.90;;;;;;5092995;28;20291;-67
2023/04/05 06:28:33;;;;;;;16.60;13.30;;;0.20;99.90;;;;;;5092914;28;20181;-67
2023/04/05 06:30:59;;;;;;;18.50;13.73;;;0.30;99.90;;;;;;5094364;28;20573;-67
2023/04/05 06:33:25;;;;;;;20.83;12.97;;;0.40;99.90;;;;;;5092771;28;20268;-67
2023/04/05 06:35:51;;;;;;;16.77;13.40;;;0.50;99.90;;;;;;5092942;28;20603;-67
2023/04/05 06:38:17;;;;;;;17.77;13.27;;;0.60;99.90;;;;;;5092561;28;20721;-67
2023/04/05 06:40:43;;;;;;;16.93;12.83;;;0.70;99.90;;;;;;5094411;28;20275;-67
2023/04/05 06:43:12;;;;;;;16.13;13.10;;;0.80;99.90;;;;;;5093966;28;20229;-68
2023/04/05 06:45:37;;;;;;;15.03;12.43;;;0.90;99.90;;;;;;5094091;28;20256;-67
2023/04/05 06:48:05;;;;;;;15.40;12.97;;;1.00;99.90;;;;;;5094841;28;20234;-65
2023/04/05 06:50:31;;;;;;;19.30;13.40;;;1.10;99.90;;;;;;5095363;28;20201;-67
2023/04/05 06:52:58;;;;;;;16.90;13.67;;;1.20;99.90;;;;;;5103618;28;20191;-66
2023/04/05 06:55:36;;;;;;;15.90;12.07;;;1.30;99.90;;;;;;5118368;28;20161;-67
2023/04/05 06:58:25;;;;;;;16.00;11.20;;;1.50;99.90;;;;;;5112806;28;20188;-66
2023/04/05 07:01:01;;;;;;;16.80;12.20;;;1.60;99.90;;;;;;5114548;28;20250;-66
2023/04/05 07:03:49;;;;;;;14.13;12.07;;;1.80;99.90;;;;;;5096041;28;20184;-66
2023/04/05 07:06:26;;;;;;;18.00;12.70;;;1.80;99.90;;;;;;5114395;28;20161;-66
2023/04/05 07:08:55;;;;;;;18.20;12.13;;;1.90;99.90;;;;;;5112891;28;20252;-66
2023/04/05 07:11:33;;;;;;;16.73;12.03;;;2.00;99.90;;;;;;5112358;28;20592;-67
2023/04/05 07:14:18;;;;;;;14.53;12.17;;;2.10;99.90;;;;;;5114275;28;20161;-67
2023/04/05 07:16:57;;;;;;;16.13;12.07;;;2.30;99.90;;;;;;5113492;28;20176;-67
2023/04/05 07:19:25;;;;;;;16.60;11.70;;;2.50;99.90;;;;;;5112199;28;20267;-67
2023/04/05 07:22:03;;;;;;;14.50;11.50;;;2.60;99.90;;;;;;5101242;28;20208;-67
2023/04/05 07:24:52;;;;;;;16.53;11.60;;;2.70;99.90;;;;;;5056506;28;20197;-67
2023/04/05 07:27:19;;;;;;;15.70;12.13;;;2.80;99.90;;;;;;5058104;28;20197;-67
2023/04/05 07:29:47;;;;;;;18.17;12.77;;;3.00;99.90;;;;;;5071776;28;20217;-67
2023/04/05 07:32:13;;;;;;;18.43;12.27;;;3.10;99.90;;;;;;5072024;28;20174;-67
2023/04/05 07:34:40;;;;;;;13.73;12.13;;;3.20;99.90;;;;;;5073047;28;20188;-67
2023/04/05 07:37:08;;;;;;;15.60;11.97;;;3.30;99.90;;;;;;5075969;28;20186;-67
2023/04/05 07:39:46;;;;;;;14.43;11.40;;;3.40;99.90;;;;;;5075845;28;20197;-67
2023/04/05 07:42:13;;;;;;;12.57;11.27;;;3.60;99.90;;;;;;5076307;28;20173;-67
2023/04/05 07:44:55;;;;;;;15.40;10.80;;;3.70;99.90;;;;;;5077019;28;20662;-67
2023/04/05 07:47:26;;;;;;;15.23;10.73;;;3.80;99.90;;;;;;5075963;28;20589;-67
2023/04/05 07:49:59;;;;;;;13.90;11.53;;;3.80;99.90;;;;;;5076748;28;20563;-67
2023/04/05 07:52:27;;;;;;;16.53;12.13;;;4.00;99.90;;;;;;5079815;28;20209;-67
2023/04/05 07:54:57;;;;;;;19.30;11.30;;;4.10;99.90;;;;;;5079260;28;20185;-67
2023/04/05 07:57:23;;;;;;;14.73;11.23;;;4.30;99.90;;;;;;5096874;28;20759;-67
2023/04/05 07:59:51;;;;;;;16.33;10.70;;;4.40;99.90;;;;;;5095340;28;20181;-67
2023/04/05 08:02:20;;;;;;;14.60;10.83;;;4.50;99.90;;;;;;5095803;28;20196;-67
2023/04/05 08:04:47;;;;;;;16.73;11.60;;;4.70;99.90;;;;;;5078592;28;20231;-67
2023/04/05 08:07:18;;;;;;;16.20;11.43;;;4.90;99.90;;;;;;5096938;28;20181;-67
2023/04/05 08:09:46;;;;;;;11.00;9.87;;;4.90;99.90;;;;;;5095729;28;20253;-67
2023/04/05 08:12:11;;;;;;;15.57;10.37;;;5.10;99.90;;;;;;5096911;28;20184;-67
2023/04/05 08:14:42;;;;;;;14.23;10.63;;;5.20;99.90;;;;;;5078681;28;20177;-67
2023/04/05 08:17:10;;;;;;;15.80;10.97;;;5.20;99.90;;;;;;5095511;28;20173;-67
2023/04/05 08:19:36;;;;;;;13.70;10.00;;;5.10;99.90;;;;;;5096575;28;20177;-66
2023/04/05 08:22:03;;;;;;;14.53;11.10;;;5.30;99.90;;;;;;5096424;28;20197;-68
2023/04/05 08:24:29;;;;;;;11.47;10.23;;;6.00;99.90;;;;;;5097045;28;20231;-69
2023/04/05 08:26:55;;;;;;;11.03;8.83;;;7.20;99.90;;;;;;5096410;28;20177;-69
2023/04/05 08:29:20;;;;;;;12.13;8.63;;;8.90;99.90;;;;;;5096495;28;20224;-69
2023/04/05 08:31:46;;;;;;;9.53;8.00;;;10.50;99.90;;;;;;5096401;28;20559;-69
2023/04/05 08:34:12;;;;;;;7.80;6.83;;;11.20;99.90;;;;;;5096437;28;20563;-69
2023/04/05 08:36:38;;;;;;;9.48;7.18;;;11.40;99.90;;;;;;5096384;28;20200;-70
2023/04/05 08:39:03;;;;;;;7.63;6.93;;;11.90;99.90;;;;;;5095088;28;20184;-70
2023/04/05 08:41:36;;;;;;;7.70;6.18;;;12.70;99.90;;;;;;5096355;28;20193;-69
2023/04/05 08:44:06;;;;;;;7.30;6.60;;;13.00;99.40;;;;;;5096738;28;20511;-70
2023/04/05 08:46:34;;;;;;;7.20;6.15;;;13.60;97.50;;;;;;5095542;28;20160;-66
2023/04/05 08:49:06;;;;;;;8.88;6.00;;;13.60;95.80;;;;;;5096168;28;20622;-66
2023/04/05 08:51:35;;;;;;;7.53;6.25;;;13.30;94.60;;;;;;5096269;28;20242;-66
2023/04/05 08:54:01;;;;;;;10.77;6.25;;;13.70;97.80;;;;;;5116646;28;20173;-66
2023/04/05 08:56:31;;;;;;;7.43;6.30;;;13.90;96.80;;;;;;5123169;28;20179;-66
2023/04/05 08:59:01;;;;;;;8.50;6.22;;;13.60;96.60;;;;;;5124061;28;20260;-66
2023/04/05 09:01:29;;;;;;;6.95;5.82;;;13.60;95.70;;;;;;5120193;28;20214;-66
2023/04/05 09:04:06;;;;;;;6.75;6.07;;;13.90;94.30;;;;;;5118284;28;20172;-68
2023/04/05 09:06:34;;;;;;;7.05;6.45;;;14.00;94.40;;;;;;5116719;28;20204;-67
2023/04/05 09:09:04;;;;;;;9.43;6.40;;;13.80;94.10;;;;;;5115510;28;20225;-67
2023/04/05 09:11:31;;;;;;;8.00;6.43;;;13.30;95.60;;;;;;5115123;28;20227;-67
2023/04/05 09:13:56;;;;;;;7.00;6.28;;;13.50;94.90;;;;;;5116830;28;20225;-67
2023/04/05 09:16:24;;;;;;;9.23;6.95;;;13.40;93.10;;;;;;5115901;28;20176;-68
2023/04/05 09:18:50;;;;;;;6.95;5.97;;;13.40;94.70;;;;;;5115938;28;20165;-68
2023/04/05 09:21:16;;;;;;;9.57;6.60;;;14.30;95.70;;;;;;5114741;28;20246;-67
2023/04/05 09:23:52;;;;;;;7.47;6.78;;;13.90;92.90;;;;;;5101216;28;20177;-67
2023/04/05 09:26:23;;;;;;;9.10;6.82;;;13.60;93.90;;;;;;5094192;28;20169;-67
2023/04/05 09:28:49;;;;;;;8.38;6.60;;;13.40;94.10;;;;;;5094019;28;20559;-67
2023/04/05 09:31:35;;;;;;;8.30;6.82;;;13.30;94.00;;;;;;5093922;28;20213;-67
2023/04/05 09:34:05;;;;;;;9.65;6.55;;;12.50;92.50;;;;;;5095122;28;20183;-67
2023/04/05 09:36:34;;;;;;;9.25;6.70;;;13.00;95.20;;;;;;5095231;28;20253;-67
2023/04/05 09:39:08;;;;;;;11.23;7.20;;;13.10;96.40;;;;;;5093809;28;20177;-67
2023/04/05 09:41:35;;;;;;;8.20;6.50;;;13.00;93.00;;;;;;5095240;28;20189;-68
2023/04/05 09:44:01;;;;;;;7.35;6.35;;;12.90;93.10;;;;;;5095556;28;20689;-67
2023/04/05 09:46:32;;;;;;;8.77;6.82;;;12.40;93.00;;;;;;5093646;28;20177;-67
2023/04/05 09:49:02;;;;;;;7.82;6.95;;;12.40;93.90;;;;;;5095057;28;20260;-68
2023/04/05 09:51:36;;;;;;;8.18;7.13;;;12.30;94.90;;;;;;5093281;28;20219;-67
2023/04/05 09:54:03;;;;;;;9.82;7.70;;;12.50;93.70;;;;;;5093377;28;20229;-67
2023/04/05 09:56:37;;;;;;;9.68;7.20;;;12.00;92.70;;;;;;5094756;28;20653;-67
2023/04/05 09:59:11;;;;;;;10.82;7.80;;;11.20;92.60;;;;;;5094691;28;20189;-67
2023/04/05 10:01:41;;;;;;;9.80;8.15;;;11.00;92.70;;;;;;5092688;28;20200;-67
2023/04/05 10:04:07;;;;;;;10.70;8.03;;;10.40;93.30;;;;;;5093135;28;20176;-67
2023/04/05 10:06:40;;;;;;;10.47;8.60;;;10.40;93.80;;;;;;5094655;28;20169;-67
2023/04/05 10:09:07;;;;;;;9.97;7.60;;;10.00;93.80;;;;;;5094635;28;20173;-67
2023/04/05 10:11:35;;;;;;;11.27;8.13;;;10.00;94.50;;;;;;5094483;28;20245;-67
2023/04/05 10:14:05;;;;;;;9.97;7.53;;;10.10;95.10;;;;;;5094342;28;20726;-67
2023/04/05 10:17:09;;;;;;;10.00;7.60;;;10.30;95.70;;;;;;5096478;28;20215;-67
2023/04/05 10:19:50;;;;;;;9.80;7.33;;;10.40;95.60;;;;;;5096368;28;20180;-68
2023/04/05 10:22:28;;;;;;;9.13;7.33;;;10.70;96.90;;;;;;5094650;28;20631;-65
2023/04/05 10:25:03;;;;;;;8.23;7.30;;;10.70;94.50;;;;;;5092887;28;20165;-65
2023/04/05 10:27:55;;;;;;;10.73;8.20;;;10.50;94.20;;;;;;5093792;28;20165;-65
2023/04/05 10:30:27;;;;;;;8.20;7.37;;;10.40;95.40;;;;;;5092836;28;20209;-65
2023/04/05 10:33:18;;;;;;;9.77;7.13;;;10.60;95.40;;;;;;5093997;28;20290;-65
2023/04/05 10:36:23;;;;;;;10.90;7.73;;;10.20;93.40;;;;;;5093843;28;20181;-65
2023/04/05 10:39:03;;;;;;;9.17;7.67;;;10.20;95.70;;;;;;5092390;28;20207;-64
2023/04/05 10:41:46;;;;;;;9.37;7.70;;;10.30;97.00;;;;;;5092416;28;20216;-65
2023/04/05 10:44:14;;;;;;;8.73;7.83;;;10.50;97.30;;;;;;5092473;28;20257;-64
2023/04/05 10:46:47;;;;;;;12.30;7.53;;;10.10;94.20;;;;;;5093663;28;20259;-64
2023/04/05 10:49:34;;;;;;;11.47;8.40;;;9.90;94.10;;;;;;5092000;28;20569;-64
2023/04/05 10:52:02;;;;;;;10.63;8.23;;;9.70;93.70;;;;;;5093097;28;20239;-66
2023/04/05 10:54:32;;;;;;;10.93;8.10;;;9.80;93.80;;;;;;5093554;28;20531;-64
2023/04/05 10:57:17;;;;;;;9.13;7.77;;;9.90;94.70;;;;;;5092128;28;20656;-65
2023/04/05 10:59:45;;;;;;;11.40;7.80;;;10.10;94.10;;;;;;5093422;28;20245;-65
2023/04/05 11:02:14;;;;;;;12.40;8.73;;;10.40;96.00;;;;;;5092024;28;20266;-65
2023/04/05 11:04:44;;;;;;;10.50;7.80;;;10.80;96.70;;;;;;5091822;28;20193;-65
2023/04/05 11:07:17;;;;;;;9.70;7.90;;;11.10;97.60;;;;;;5090321;28;20196;-67
2023/04/05 11:10:00;;;;;;;9.20;7.87;;;11.30;97.70;;;;;;5091774;28;20254;-67
2023/04/05 11:12:45;;;;;;;11.83;7.70;;;11.50;97.20;;;;;;5093745;28;20169;-66
2023/04/05 11:15:29;;;;;;;9.33;7.80;;;11.60;96.50;;;;;;5092223;28;20184;-66
2023/04/05 11:18:14;;;;;;;8.38;7.47;;;11.80;97.40;;;;;;5093409;28;20264;-67
2023/04/05 11:21:06;;;;;;;9.73;7.97;;;12.10;97.20;;;;;;5093347;28;20197;-67
2023/04/05 11:23:31;;;;;;;9.32;7.93;;;12.20;97.40;;;;;;5093472;28;20180;-67
2023/04/05 11:26:06;;;;;;;8.93;7.72;;;12.50;97.20;;;;;;5093568;28;20243;-67
2023/04/05 11:28:39;;;;;;;8.95;8.05;;;12.60;95.50;;;;;;5093732;28;20218;-67
2023/04/05 11:31:17;;;;;;;9.57;8.00;;;12.00;95.00;;;;;;5092000;28;20584;-69
2023/04/05 11:33:55;;;;;;;9.85;7.85;;;12.30;96.70;;;;;;5091934;28;20166;-70
2023/04/05 11:36:37;;;;;;;9.85;7.88;;;12.40;95.60;;;;;;5092156;28;20255;-70
2023/04/05 11:39:18;;;;;;;9.35;8.02;;;12.50;94.30;;;;;;5092104;28;20180;-69
2023/04/05 11:42:05;;;;;;;10.52;8.20;;;12.50;95.40;;;;;;5092097;28;20611;-70
2023/04/05 11:44:41;;;;;;;10.90;8.93;;;12.40;93.50;;;;;;5093276;28;20170;-69
2023/04/05 11:47:08;;;;;;;8.77;7.43;;;12.70;96.00;;;;;;5092087;28;20625;-70
2023/04/05 11:49:34;;;;;;;10.10;7.97;;;12.90;96.00;;;;;;5093200;28;20200;-70
2023/04/05 11:52:16;;;;;;;10.13;8.00;;;13.10;95.20;;;;;;5093252;28;20185;-69
2023/04/05 11:54:45;;;;;;;11.52;8.05;;;13.20;94.50;;;;;;5092049;28;20166;-70
2023/04/05 11:57:13;;;;;;;11.85;8.13;;;13.40;93.90;;;;;;5091908;28;20264;-70
2023/04/05 11:59:39;;;;;;;9.82;7.93;;;13.50;94.00;;;;;;5093709;28;20263;-65
2023/04/05 12:02:07;;;;;;;12.10;8.00;;;13.50;93.70;;;;;;5092251;28;20233;-65
2023/04/05 12:04:37;;;;;;;9.70;7.93;;;13.60;92.70;;;;;;5092403;28;20273;-65
2023/04/05 12:07:17;;;;;;;10.18;7.70;;;13.50;93.00;;;;;;5092466;28;20595;-67
2023/04/05 12:09:59;;;;;;;11.07;7.50;;;13.70;93.00;;;;;;5092089;28;20196;-67
2023/04/05 12:12:25;;;;;;;7.97;7.10;;;13.70;92.10;;;;;;5092425;28;20544;-68
2023/04/05 12:14:57;;;;;;;10.18;8.35;;;13.50;92.50;;;;;;5092219;28;20173;-68
2023/04/05 12:17:37;;;;;;;10.43;8.05;;;13.60;92.60;;;;;;5093637;28;20557;-68
2023/04/05 12:20:04;;;;;;;9.45;8.18;;;13.70;91.80;;;;;;5091840;28;20204;-68
2023/04/05 12:22:30;;;;;;;10.88;7.88;;;13.20;90.60;;;;;;5095677;28;20229;-68
2023/04/05 12:24:56;;;;;;;8.52;7.47;;;13.30;91.00;;;;;;5097472;28;20177;-68
2023/04/05 12:27:22;;;;;;;11.10;7.95;;;13.10;88.50;;;;;;5095872;28;20543;-68
2023/04/05 12:30:15;;;;;;;8.82;7.70;;;13.50;90.80;;;;;;5096929;28;20266;-68
2023/04/05 12:32:42;;;;;;;8.23;7.22;;;13.90;91.60;;;;;;5094789;28;20560;-68
2023/04/05 12:35:15;;;;;;;12.32;7.72;;;13.90;90.00;;;;;;5096714;28;20248;-68
2023/04/05 12:37:41;;;;;;;9.88;7.78;;;13.90;90.90;;;;;;5097265;28;20198;-68
2023/04/05 12:40:08;;;;;;;10.00;7.57;;;14.00;90.40;;;;;;5095086;28;20606;-68
2023/04/05 12:42:35;;;;;;;10.15;8.18;;;14.00;92.20;;;;;;5096969;28;20548;-68
2023/04/05 12:45:11;;;;;;;11.65;8.40;;;14.20;90.50;;;;;;5095238;28;20268;-68
2023/04/05 12:48:10;;;;;;;10.77;8.18;;;14.30;91.50;;;;;;5095625;28;20173;-68
2023/04/05 12:50:42;;;;;;;10.10;8.45;;;14.10;88.00;;;;;;5093654;28;20723;-68